Time;durP1;ratioP1;P1;durP2;ratioP2;P2;SDS_P1;SDS_P2;PMS_P1;PMS_P2;Temp;Humidity;BMP_temperature;BMP_pressure;BME280_temperature;BME280_humidity;BME280_pressure;Samples;Min_cycle;Max_cycle;Signal;HPM_P1;HPM_P2
2021/12/27 00:00:57;;;;;;;20.45;8.43;;;2.50;99.90;;;;;;5011243;28;20026;-74
2021/12/27 00:03:23;;;;;;;23.25;8.23;;;2.60;99.90;;;;;;5013809;28;20073;-74
2021/12/27 00:05:48;;;;;;;22.38;8.07;;;2.60;99.90;;;;;;5012869;28;20030;-74
2021/12/27 00:08:14;;;;;;;21.58;6.93;;;2.60;99.90;;;;;;5014842;28;20022;-74
2021/12/27 00:10:40;;;;;;;18.25;6.82;;;2.60;99.90;;;;;;5014262;28;20093;-74
2021/12/27 00:13:07;;;;;;;22.92;7.80;;;2.60;99.90;;;;;;4997004;28;20018;-73
2021/12/27 00:15:33;;;;;;;22.38;8.00;;;2.70;99.90;;;;;;5014357;28;20025;-73
2021/12/27 00:17:59;;;;;;;24.08;7.43;;;2.70;99.90;;;;;;4996759;28;20037;-74
2021/12/27 00:20:25;;;;;;;24.67;7.60;;;2.70;99.90;;;;;;5014278;28;20125;-73
2021/12/27 00:22:51;;;;;;;23.48;8.20;;;2.70;99.90;;;;;;5014153;28;20033;-74
2021/12/27 00:25:17;;;;;;;24.65;7.93;;;2.70;99.90;;;;;;5013958;28;20394;-73
2021/12/27 00:27:44;;;;;;;28.35;7.68;;;2.70;99.90;;;;;;5014257;28;20546;-74
2021/12/27 00:30:11;;;;;;;23.23;7.60;;;2.70;99.90;;;;;;5013979;28;20097;-74
2021/12/27 00:32:37;;;;;;;21.88;7.68;;;2.70;99.90;;;;;;5013994;28;20518;-74
2021/12/27 00:35:04;;;;;;;25.00;8.02;;;2.70;99.90;;;;;;4991921;28;20384;-75
2021/12/27 00:37:30;;;;;;;30.25;9.18;;;2.80;99.90;;;;;;5010889;28;20029;-75
2021/12/27 00:39:56;;;;;;;21.90;8.60;;;2.80;99.90;;;;;;5013915;28;20029;-75
2021/12/27 00:42:22;;;;;;;19.77;7.90;;;2.80;99.90;;;;;;4996258;28;20398;-75
2021/12/27 00:44:47;;;;;;;21.58;7.90;;;2.80;99.90;;;;;;5013764;28;20391;-74
2021/12/27 00:47:13;;;;;;;24.20;8.27;;;2.80;99.90;;;;;;5012661;28;20550;-74
2021/12/27 00:49:38;;;;;;;20.35;7.43;;;2.80;99.90;;;;;;5014352;28;20036;-74
2021/12/27 00:52:04;;;;;;;22.38;7.93;;;2.80;99.90;;;;;;5013648;28;20049;-75
2021/12/27 00:54:30;;;;;;;20.40;8.25;;;2.80;99.90;;;;;;5012429;28;20022;-75
2021/12/27 00:56:55;;;;;;;24.55;8.20;;;2.80;99.90;;;;;;5013815;28;20018;-74
2021/12/27 00:59:21;;;;;;;24.75;8.40;;;2.80;99.90;;;;;;5013595;28;20022;-74
2021/12/27 01:01:46;;;;;;;24.63;8.85;;;2.80;99.90;;;;;;4996055;28;20044;-74
2021/12/27 01:04:12;;;;;;;25.20;9.40;;;2.90;99.90;;;;;;4996355;28;20052;-74
2021/12/27 01:06:38;;;;;;;22.20;8.38;;;2.90;99.90;;;;;;5013853;28;20037;-74
2021/12/27 01:09:04;;;;;;;26.38;8.57;;;2.90;99.90;;;;;;5013703;28;20026;-74
2021/12/27 01:11:41;;;;;;;24.55;9.07;;;2.80;99.90;;;;;;5013690;28;20028;-74
2021/12/27 01:14:12;;;;;;;27.90;8.30;;;2.90;99.90;;;;;;5013769;28;20026;-74
2021/12/27 01:16:39;;;;;;;19.77;7.10;;;2.90;99.90;;;;;;5015826;28;20108;-74
2021/12/27 01:19:06;;;;;;;26.15;9.00;;;1.50;99.90;;;;;;5017677;28;20368;-74
2021/12/27 01:21:32;;;;;;;22.58;8.35;;;2.90;99.90;;;;;;5017260;28;20376;-74
2021/12/27 01:23:57;;;;;;;26.70;9.45;;;2.90;99.90;;;;;;5017737;28;20045;-74
2021/12/27 01:26:26;;;;;;;23.55;7.95;;;2.90;99.90;;;;;;4998784;28;20034;-74
2021/12/27 01:28:52;;;;;;;21.73;7.03;;;2.90;99.90;;;;;;4997784;28;20089;-74
2021/12/27 01:31:18;;;;;;;25.30;8.80;;;2.90;99.90;;;;;;4996489;28;20022;-74
2021/12/27 01:33:46;;;;;;;23.77;8.23;;;2.90;99.90;;;;;;4997796;28;20027;-75
2021/12/27 01:36:12;;;;;;;24.55;8.45;;;2.90;99.90;;;;;;5011765;28;20034;-74
2021/12/27 01:38:39;;;;;;;25.50;8.57;;;2.90;99.90;;;;;;4999476;28;20116;-75
2021/12/27 01:41:06;;;;;;;31.65;9.05;;;2.90;99.90;;;;;;5017341;28;20033;-74
2021/12/27 01:43:34;;;;;;;26.70;7.60;;;2.90;99.90;;;;;;5012937;28;20026;-74
2021/12/27 01:46:05;;;;;;;21.97;7.77;;;2.90;99.90;;;;;;4980054;28;20054;-74
2021/12/27 01:48:37;;;;;;;23.20;8.48;;;2.90;99.90;;;;;;4979911;28;20058;-75
2021/12/27 01:51:04;;;;;;;18.98;7.72;;;2.90;99.90;;;;;;5011567;28;20026;-74
2021/12/27 01:53:32;;;;;;;20.13;7.28;;;3.00;99.90;;;;;;5016756;28;20435;-74
2021/12/27 01:56:00;;;;;;;19.27;6.93;;;3.00;99.90;;;;;;5016770;28;20110;-75
2021/12/27 01:58:26;;;;;;;18.38;7.30;;;3.00;99.90;;;;;;5016513;28;20284;-75
2021/12/27 02:00:57;;;;;;;22.02;8.13;;;2.90;99.90;;;;;;5016778;28;20029;-75
2021/12/27 02:03:25;;;;;;;21.75;8.20;;;3.00;99.90;;;;;;5016821;28;20109;-75
2021/12/27 02:05:51;;;;;;;20.70;8.07;;;3.00;99.90;;;;;;5016747;28;20022;-75
2021/12/27 02:08:17;;;;;;;17.45;7.35;;;3.00;99.90;;;;;;5017191;28;20092;-75
2021/12/27 02:10:43;;;;;;;20.00;7.28;;;3.00;99.90;;;;;;5017001;28;20030;-74
2021/12/27 02:13:09;;;;;;;14.98;6.43;;;3.10;99.90;;;;;;5016633;28;20057;-75
2021/12/27 02:15:35;;;;;;;19.13;7.68;;;3.10;99.90;;;;;;5016794;28;20022;-75
2021/12/27 02:18:00;;;;;;;16.88;6.90;;;3.10;99.90;;;;;;5016352;28;20371;-74
2021/12/27 02:20:32;;;;;;;19.35;7.00;;;3.10;99.90;;;;;;5016613;28;20101;-74
2021/12/27 02:23:02;;;;;;;19.38;7.22;;;3.10;99.90;;;;;;4998606;28;20041;-74
2021/12/27 02:25:29;;;;;;;19.73;7.75;;;3.10;99.90;;;;;;5016633;28;20436;-74
2021/12/27 02:27:55;;;;;;;17.05;6.72;;;3.10;99.90;;;;;;5015790;28;20065;-74
2021/12/27 02:30:22;;;;;;;21.48;7.57;;;3.10;99.90;;;;;;5008868;28;20026;-74
2021/12/27 02:32:51;;;;;;;23.13;7.75;;;3.10;99.90;;;;;;5007032;28;20053;-74
2021/12/27 02:35:19;;;;;;;15.30;6.57;;;3.10;99.90;;;;;;5015999;28;20049;-74
2021/12/27 02:37:45;;;;;;;18.02;7.63;;;3.10;99.90;;;;;;5016573;28;20022;-74
2021/12/27 02:40:11;;;;;;;21.25;7.85;;;3.10;99.90;;;;;;5016439;28;20021;-74
2021/12/27 02:42:58;;;;;;;19.48;7.32;;;3.10;99.90;;;;;;5016070;28;20033;-75
2021/12/27 02:45:26;;;;;;;21.08;8.27;;;3.10;99.90;;;;;;4978679;28;20069;-75
2021/12/27 02:47:52;;;;;;;18.40;7.22;;;3.10;99.90;;;;;;4978833;28;20073;-75
2021/12/27 02:50:18;;;;;;;19.52;7.60;;;3.10;99.90;;;;;;4996596;28;20026;-75
2021/12/27 02:52:45;;;;;;;20.45;7.95;;;3.10;99.90;;;;;;5011800;28;20030;-73
2021/12/27 02:55:15;;;;;;;23.85;8.32;;;3.10;99.90;;;;;;5016000;28;20552;-75
2021/12/27 02:57:45;;;;;;;19.50;7.25;;;3.20;99.90;;;;;;5016033;28;20494;-75
2021/12/27 03:00:23;;;;;;;28.10;8.95;;;3.10;99.90;;;;;;5015527;28;20026;-75
2021/12/27 03:02:50;;;;;;;23.37;8.10;;;3.20;99.90;;;;;;4997974;28;20433;-75
2021/12/27 03:05:18;;;;;;;20.48;7.38;;;3.10;99.90;;;;;;5015439;28;20435;-75
2021/12/27 03:07:46;;;;;;;21.73;7.50;;;3.10;99.90;;;;;;4998164;28;20487;-75
2021/12/27 03:10:14;;;;;;;21.25;7.85;;;3.20;99.90;;;;;;4997949;28;20108;-75
2021/12/27 03:12:40;;;;;;;22.87;8.07;;;3.20;99.90;;;;;;4997822;28;20313;-73
2021/12/27 03:15:08;;;;;;;18.88;7.25;;;3.20;99.90;;;;;;5015420;28;20025;-75
2021/12/27 03:17:34;;;;;;;23.90;8.00;;;3.10;99.90;;;;;;5015273;28;20541;-75
2021/12/27 03:19:59;;;;;;;20.45;7.72;;;3.10;99.90;;;;;;5015538;28;20430;-75
2021/12/27 03:22:25;;;;;;;24.95;9.65;;;3.10;99.90;;;;;;5015230;28;20028;-75
2021/12/27 03:24:50;;;;;;;21.80;7.85;;;3.10;99.90;;;;;;5015661;28;20079;-75
2021/12/27 03:27:16;;;;;;;19.08;7.38;;;3.10;99.90;;;;;;5015163;28;20168;-75
2021/12/27 03:29:41;;;;;;;21.40;7.70;;;3.10;99.90;;;;;;4997513;28;20108;-75
2021/12/27 03:32:07;;;;;;;26.15;8.70;;;3.10;99.90;;;;;;4997295;28;20025;-75
2021/12/27 03:34:33;;;;;;;23.00;7.68;;;3.20;99.90;;;;;;5015105;28;20471;-75
2021/12/27 03:36:59;;;;;;;22.55;7.35;;;3.20;99.90;;;;;;4997378;28;20044;-75
2021/12/27 03:39:25;;;;;;;25.33;8.18;;;3.20;99.90;;;;;;5014124;28;20136;-74
2021/12/27 03:41:51;;;;;;;25.30;8.20;;;3.20;99.90;;;;;;5013535;28;20025;-75
2021/12/27 03:44:16;;;;;;;22.60;7.65;;;3.20;99.90;;;;;;5013607;28;20022;-75
2021/12/27 03:46:42;;;;;;;21.42;7.25;;;3.20;99.90;;;;;;4997118;28;20029;-75
2021/12/27 03:49:07;;;;;;;21.52;8.07;;;3.20;99.90;;;;;;4997250;28;20053;-75
2021/12/27 03:51:33;;;;;;;18.15;7.32;;;3.20;99.90;;;;;;5014746;28;20021;-75
2021/12/27 03:53:59;;;;;;;28.55;8.32;;;3.30;99.90;;;;;;5013404;28;20034;-73
2021/12/27 03:56:24;;;;;;;23.42;7.60;;;3.30;99.90;;;;;;4996977;28;20547;-74
2021/12/27 03:59:19;;;;;;;22.90;7.82;;;3.30;99.90;;;;;;5015208;28;20415;-74
2021/12/27 04:01:42;;;;;;;27.95;8.15;;;3.30;99.90;;;;;;5014395;28;20041;-75
2021/12/27 04:04:07;;;;;;;29.17;8.57;;;3.30;99.90;;;;;;5014585;28;20030;-75
2021/12/27 04:06:33;;;;;;;20.15;7.22;;;3.30;99.90;;;;;;5014684;28;20064;-75
2021/12/27 04:08:58;;;;;;;22.35;8.25;;;3.30;99.90;;;;;;5014883;28;20022;-75
2021/12/27 04:11:24;;;;;;;22.58;7.38;;;3.30;99.90;;;;;;5014352;28;20033;-74
2021/12/27 04:13:49;;;;;;;21.30;7.72;;;3.40;99.90;;;;;;5014381;28;20144;-75
2021/12/27 04:16:15;;;;;;;20.40;7.72;;;3.40;99.90;;;;;;5014473;28;20077;-74
2021/12/27 04:18:41;;;;;;;21.15;7.65;;;3.40;99.90;;;;;;5014227;28;20041;-73
2021/12/27 04:21:06;;;;;;;19.65;8.02;;;3.40;99.90;;;;;;5014213;28;20036;-74
2021/12/27 04:23:32;;;;;;;18.10;6.75;;;3.40;99.90;;;;;;5014309;28;20017;-75
2021/12/27 04:25:58;;;;;;;20.38;7.80;;;3.40;99.90;;;;;;5013936;28;20030;-75
2021/12/27 04:28:24;;;;;;;15.65;6.03;;;3.40;99.90;;;;;;5014530;28;20032;-75
2021/12/27 04:30:50;;;;;;;22.48;7.28;;;3.40;99.90;;;;;;5014248;28;20013;-74
2021/12/27 04:33:16;;;;;;;14.82;6.15;;;3.40;99.90;;;;;;5012949;28;20050;-74
2021/12/27 04:35:42;;;;;;;18.40;6.75;;;3.40;99.90;;;;;;5012794;28;20027;-74
2021/12/27 04:38:08;;;;;;;22.27;7.85;;;3.40;99.90;;;;;;5013948;28;20060;-75
2021/12/27 04:40:38;;;;;;;17.33;6.43;;;3.40;99.90;;;;;;5014365;28;20022;-75
2021/12/27 04:43:12;;;;;;;15.65;6.07;;;3.40;99.90;;;;;;5012641;28;20030;-75
2021/12/27 04:45:38;;;;;;;14.40;6.03;;;3.40;99.90;;;;;;5014175;28;20195;-74
2021/12/27 04:48:04;;;;;;;16.08;6.15;;;3.40;99.90;;;;;;4996612;28;20525;-75
2021/12/27 04:50:30;;;;;;;18.42;5.72;;;3.40;99.90;;;;;;5016772;28;20492;-75
2021/12/27 04:52:56;;;;;;;17.88;5.95;;;3.40;99.90;;;;;;5020397;28;20068;-75
2021/12/27 04:55:23;;;;;;;11.90;5.88;;;3.50;99.90;;;;;;5020283;28;20018;-75
2021/12/27 04:57:50;;;;;;;11.15;5.18;;;3.50;99.90;;;;;;5020832;28;20379;-75
2021/12/27 05:00:16;;;;;;;18.17;6.32;;;3.50;99.90;;;;;;5020478;28;20535;-75
2021/12/27 05:02:42;;;;;;;16.40;5.97;;;3.50;99.90;;;;;;5019202;28;20121;-75
2021/12/27 05:05:08;;;;;;;16.02;6.43;;;3.50;99.90;;;;;;4999639;28;20041;-75
2021/12/27 05:07:34;;;;;;;15.55;6.20;;;3.50;99.90;;;;;;5000598;28;20034;-75
2021/12/27 05:09:59;;;;;;;15.07;4.88;;;3.60;99.90;;;;;;5000153;28;20431;-75
2021/12/27 05:12:25;;;;;;;14.35;5.72;;;3.60;99.90;;;;;;5017505;28;20017;-76
2021/12/27 05:14:51;;;;;;;19.27;5.90;;;3.60;99.90;;;;;;5002108;28;20015;-75
2021/12/27 05:17:16;;;;;;;16.35;6.53;;;3.60;99.90;;;;;;5019705;28;20030;-74
2021/12/27 05:19:42;;;;;;;16.17;6.05;;;3.60;99.90;;;;;;5001992;28;20024;-75
2021/12/27 05:22:07;;;;;;;14.52;5.18;;;3.70;99.90;;;;;;5002488;28;20033;-75
2021/12/27 05:24:33;;;;;;;22.67;7.28;;;3.70;99.90;;;;;;5019623;28;20026;-75
2021/12/27 05:26:58;;;;;;;26.55;6.85;;;3.60;99.90;;;;;;5018245;28;20026;-75
2021/12/27 05:29:24;;;;;;;19.55;6.53;;;3.70;99.90;;;;;;5019932;28;20383;-74
2021/12/27 05:31:51;;;;;;;23.08;6.20;;;3.70;99.90;;;;;;5001857;28;20010;-74
2021/12/27 05:34:16;;;;;;;17.02;6.00;;;3.70;99.90;;;;;;5001831;28;20026;-74
2021/12/27 05:36:42;;;;;;;23.40;6.88;;;3.70;99.90;;;;;;5001504;28;20109;-75
2021/12/27 05:39:10;;;;;;;21.88;7.93;;;3.70;99.90;;;;;;5018276;28;20069;-75
2021/12/27 05:41:36;;;;;;;21.98;6.45;;;3.70;99.90;;;;;;5019380;28;20061;-74
2021/12/27 05:44:01;;;;;;;21.15;7.45;;;3.70;99.90;;;;;;5019341;28;20103;-76
2021/12/27 05:46:27;;;;;;;20.10;6.75;;;3.70;99.90;;;;;;5019924;28;20518;-75
2021/12/27 05:48:52;;;;;;;24.13;7.45;;;3.70;99.90;;;;;;5019768;28;20093;-75
2021/12/27 05:51:18;;;;;;;23.25;7.30;;;3.80;99.90;;;;;;5019022;28;20018;-74
2021/12/27 05:53:43;;;;;;;22.58;7.40;;;3.80;99.90;;;;;;5019331;28;20108;-75
2021/12/27 05:56:09;;;;;;;28.58;8.43;;;3.80;99.90;;;;;;5019577;28;20417;-75
2021/12/27 05:58:34;;;;;;;19.60;8.00;;;3.80;99.90;;;;;;5001588;28;20038;-73
2021/12/27 06:01:00;;;;;;;23.13;8.13;;;3.80;99.90;;;;;;5019014;28;20029;-75
2021/12/27 06:03:26;;;;;;;21.40;7.68;;;3.90;99.90;;;;;;5015200;28;20022;-73
2021/12/27 06:05:51;;;;;;;25.63;8.43;;;3.80;99.90;;;;;;5016095;28;20048;-74
2021/12/27 06:08:17;;;;;;;25.85;8.30;;;3.90;99.90;;;;;;5016045;28;20033;-73
2021/12/27 06:10:42;;;;;;;26.80;7.57;;;3.90;99.90;;;;;;4998564;28;20395;-73
2021/12/27 06:13:08;;;;;;;24.15;8.32;;;3.90;99.90;;;;;;4998355;28;20485;-74
2021/12/27 06:15:34;;;;;;;28.15;9.18;;;3.90;99.90;;;;;;5016385;28;20490;-74
2021/12/27 06:18:00;;;;;;;31.80;8.52;;;3.90;99.90;;;;;;5016008;28;20471;-75
2021/12/27 06:20:25;;;;;;;23.33;8.00;;;3.90;99.90;;;;;;5016017;28;20120;-74
2021/12/27 06:22:54;;;;;;;26.17;7.85;;;4.00;99.90;;;;;;4998216;28;20046;-73
2021/12/27 06:25:20;;;;;;;32.03;8.07;;;4.00;99.90;;;;;;5014576;28;20014;-75
2021/12/27 06:27:46;;;;;;;23.83;8.52;;;4.00;99.90;;;;;;5014566;28;20040;-75
2021/12/27 06:30:13;;;;;;;19.20;6.93;;;4.00;99.90;;;;;;5015654;28;20502;-76
2021/12/27 06:32:39;;;;;;;31.77;8.95;;;4.00;99.90;;;;;;5015936;28;20025;-75
2021/12/27 06:35:07;;;;;;;24.17;8.20;;;4.00;99.90;;;;;;5015429;28;20036;-74
2021/12/27 06:37:33;;;;;;;27.15;9.00;;;4.00;99.90;;;;;;5015467;28;20088;-74
2021/12/27 06:39:59;;;;;;;29.77;7.88;;;4.10;99.90;;;;;;5015603;28;20022;-74
2021/12/27 06:42:24;;;;;;;27.92;8.02;;;4.10;99.90;;;;;;4997876;28;20033;-74
2021/12/27 06:44:50;;;;;;;25.80;7.70;;;4.00;99.90;;;;;;5014258;28;20480;-75
2021/12/27 06:47:15;;;;;;;29.85;8.93;;;4.10;99.90;;;;;;5015392;28;20076;-75
2021/12/27 06:49:42;;;;;;;31.90;8.77;;;4.10;99.90;;;;;;4997821;28;20418;-75
2021/12/27 06:52:08;;;;;;;30.83;8.00;;;4.10;99.90;;;;;;5014991;28;20065;-74
2021/12/27 06:54:34;;;;;;;23.75;7.50;;;4.10;99.90;;;;;;5015137;28;20411;-75
2021/12/27 06:57:00;;;;;;;29.88;8.02;;;4.10;99.90;;;;;;5013945;28;20065;-75
2021/12/27 06:59:30;;;;;;;29.45;9.15;;;4.20;99.90;;;;;;4997758;28;20383;-74
2021/12/27 07:01:55;;;;;;;30.17;7.57;;;4.20;99.90;;;;;;4997404;28;20115;-74
2021/12/27 07:04:21;;;;;;;29.13;7.72;;;4.20;99.90;;;;;;5014872;28;20033;-75
2021/12/27 07:06:47;;;;;;;27.95;8.63;;;4.20;99.90;;;;;;5015059;28;20037;-75
2021/12/27 07:09:12;;;;;;;23.58;9.00;;;4.20;99.90;;;;;;5014833;28;20029;-74
2021/12/27 07:11:39;;;;;;;24.58;7.90;;;4.20;99.90;;;;;;5015259;28;20034;-74
2021/12/27 07:14:06;;;;;;;29.90;8.48;;;4.30;99.90;;;;;;4997454;28;20022;-74
2021/12/27 07:16:31;;;;;;;28.17;8.02;;;4.30;99.90;;;;;;5015217;28;20026;-75
2021/12/27 07:18:57;;;;;;;33.70;8.80;;;4.30;99.90;;;;;;5015678;28;20030;-75
2021/12/27 07:21:22;;;;;;;32.58;7.95;;;4.40;99.90;;;;;;5014087;28;20018;-75
2021/12/27 07:23:48;;;;;;;35.63;8.55;;;4.40;99.90;;;;;;4997721;28;20081;-75
2021/12/27 07:26:14;;;;;;;32.40;8.50;;;4.40;99.90;;;;;;4997526;28;20022;-75
2021/12/27 07:28:40;;;;;;;36.72;8.13;;;4.40;99.90;;;;;;5014571;28;20025;-74
2021/12/27 07:31:07;;;;;;;35.05;9.55;;;4.40;99.90;;;;;;5015333;28;20101;-75
2021/12/27 07:33:33;;;;;;;28.92;7.65;;;4.40;99.90;;;;;;5014678;28;20054;-75
2021/12/27 07:35:59;;;;;;;39.08;9.52;;;4.40;99.90;;;;;;4997574;28;20395;-76
2021/12/27 07:38:25;;;;;;;34.35;8.52;;;4.40;99.90;;;;;;5015170;28;20049;-74
2021/12/27 07:40:50;;;;;;;33.67;9.35;;;4.40;99.90;;;;;;5014950;28;20026;-75
2021/12/27 07:43:16;;;;;;;30.30;8.43;;;4.40;99.90;;;;;;5014545;28;20093;-75
2021/12/27 07:45:42;;;;;;;28.15;8.45;;;4.40;99.90;;;;;;4997066;28;20038;-75
2021/12/27 07:48:09;;;;;;;30.90;8.55;;;4.50;99.90;;;;;;5015014;28;20109;-75
2021/12/27 07:50:35;;;;;;;28.35;8.52;;;4.50;99.90;;;;;;5014663;28;20557;-75
2021/12/27 07:53:01;;;;;;;30.10;7.75;;;4.40;99.90;;;;;;5014449;28;20061;-76
2021/12/27 07:55:27;;;;;;;30.30;9.05;;;4.50;99.90;;;;;;4997050;28;20026;-76
2021/12/27 07:57:54;;;;;;;32.88;8.82;;;4.50;99.90;;;;;;4996935;28;20033;-76
2021/12/27 08:00:20;;;;;;;23.17;7.25;;;4.50;99.90;;;;;;5014639;28;20029;-77
2021/12/27 08:02:45;;;;;;;30.50;9.20;;;4.50;99.90;;;;;;5014610;28;20371;-75
2021/12/27 08:05:11;;;;;;;36.80;8.20;;;4.50;99.90;;;;;;5014135;28;20033;-76
2021/12/27 08:07:37;;;;;;;39.05;8.38;;;4.50;99.90;;;;;;5014468;28;20029;-75
2021/12/27 08:10:04;;;;;;;28.23;8.45;;;4.50;99.90;;;;;;4997087;28;20082;-75
2021/12/27 08:12:29;;;;;;;31.08;9.55;;;4.50;99.90;;;;;;4999580;28;20026;-75
2021/12/27 08:14:55;;;;;;;29.65;8.73;;;4.60;99.90;;;;;;5005463;28;20483;-75
2021/12/27 08:17:21;;;;;;;44.97;8.45;;;4.60;99.90;;;;;;5014568;28;20026;-75
2021/12/27 08:19:47;;;;;;;25.67;8.10;;;4.60;99.90;;;;;;4996481;28;20033;-75
2021/12/27 08:22:13;;;;;;;27.48;8.52;;;4.60;99.90;;;;;;5012852;28;20026;-74
2021/12/27 08:24:39;;;;;;;29.55;8.52;;;4.60;99.90;;;;;;5012490;28;20036;-75
2021/12/27 08:27:05;;;;;;;36.50;9.80;;;4.60;99.90;;;;;;5013558;28;20049;-75
2021/12/27 08:29:31;;;;;;;28.63;9.02;;;4.60;99.90;;;;;;5014152;28;20057;-74
2021/12/27 08:31:57;;;;;;;28.70;8.55;;;4.60;99.90;;;;;;5014007;28;20029;-75
2021/12/27 08:34:23;;;;;;;33.75;9.57;;;4.70;99.90;;;;;;5013547;28;20053;-77
2021/12/27 08:36:49;;;;;;;31.15;8.88;;;4.70;99.90;;;;;;5012929;28;20022;-76
2021/12/27 08:39:15;;;;;;;26.17;8.27;;;4.80;99.90;;;;;;5013726;28;20101;-77
2021/12/27 08:41:41;;;;;;;36.17;9.25;;;4.80;99.90;;;;;;5008533;28;20427;-76
2021/12/27 08:44:06;;;;;;;33.22;9.40;;;4.80;99.90;;;;;;4995240;28;20077;-76
2021/12/27 08:46:33;;;;;;;35.33;9.80;;;4.80;99.90;;;;;;4992475;28;20038;-74
2021/12/27 08:48:59;;;;;;;25.85;9.43;;;4.80;99.90;;;;;;5009611;28;20018;-74
2021/12/27 08:51:25;;;;;;;33.63;9.68;;;4.80;99.90;;;;;;5011838;28;20042;-76
2021/12/27 08:53:52;;;;;;;34.85;9.60;;;4.80;99.90;;;;;;5012976;28;20044;-75
2021/12/27 08:56:20;;;;;;;33.00;9.13;;;4.90;99.90;;;;;;5012445;28;20050;-75
2021/12/27 08:58:46;;;;;;;35.13;9.48;;;4.90;99.90;;;;;;5013511;28;20260;-75
2021/12/27 09:01:11;;;;;;;30.85;9.38;;;4.90;99.90;;;;;;5013710;28;20083;-75
2021/12/27 09:03:37;;;;;;;30.40;9.88;;;4.90;99.90;;;;;;5011701;28;20030;-74
2021/12/27 09:06:04;;;;;;;32.80;9.65;;;4.90;99.90;;;;;;4996005;28;20026;-75
2021/12/27 09:08:30;;;;;;;34.85;9.75;;;5.00;99.90;;;;;;4994531;28;20033;-74
2021/12/27 09:10:58;;;;;;;38.95;9.18;;;4.90;99.90;;;;;;5003499;28;20046;-75
2021/12/27 09:13:30;;;;;;;34.85;10.65;;;5.00;99.90;;;;;;5010226;28;20045;-76
2021/12/27 09:15:59;;;;;;;34.72;9.50;;;5.00;99.90;;;;;;5011419;28;20048;-75
2021/12/27 09:18:24;;;;;;;35.40;8.90;;;5.10;99.90;;;;;;4996800;28;20023;-75
2021/12/27 09:20:50;;;;;;;32.08;9.68;;;5.10;99.90;;;;;;5001272;28;20115;-75
2021/12/27 09:23:15;;;;;;;25.92;9.25;;;5.10;99.90;;;;;;5013610;28;20483;-75
2021/12/27 09:25:43;;;;;;;33.03;9.80;;;5.10;99.90;;;;;;4985216;28;20510;-75
2021/12/27 09:28:09;;;;;;;27.98;8.15;;;5.10;99.90;;;;;;4997040;28;20053;-75
2021/12/27 09:30:36;;;;;;;35.38;9.18;;;5.10;99.90;;;;;;4994877;28;20115;-75
2021/12/27 09:33:02;;;;;;;31.50;8.82;;;5.10;99.90;;;;;;5013204;28;20092;-75
2021/12/27 09:35:27;;;;;;;33.53;10.88;;;5.20;99.90;;;;;;4995832;28;20026;-75
2021/12/27 09:37:53;;;;;;;33.42;9.18;;;5.20;99.90;;;;;;5014925;28;20030;-74
2021/12/27 09:40:19;;;;;;;36.33;8.77;;;5.20;99.90;;;;;;4998923;28;20037;-75
2021/12/27 09:42:45;;;;;;;34.60;9.52;;;5.30;99.90;;;;;;4999256;28;20029;-76
2021/12/27 09:45:11;;;;;;;32.40;10.38;;;5.40;99.90;;;;;;5017050;28;20034;-75
2021/12/27 09:47:37;;;;;;;37.95;9.73;;;5.50;99.90;;;;;;5017173;28;20476;-74
2021/12/27 09:50:06;;;;;;;35.15;8.50;;;5.60;99.90;;;;;;5015910;28;20030;-74
2021/12/27 09:52:32;;;;;;;28.13;9.27;;;5.70;99.90;;;;;;4998245;28;20109;-74
2021/12/27 09:54:59;;;;;;;33.55;10.45;;;5.80;99.90;;;;;;5015913;28;20079;-75
2021/12/27 09:57:25;;;;;;;32.00;9.05;;;5.90;99.90;;;;;;5015348;28;20441;-75
2021/12/27 09:59:51;;;;;;;25.85;9.38;;;5.90;99.90;;;;;;5016759;28;20097;-75
2021/12/27 10:02:16;;;;;;;31.08;8.70;;;5.90;99.90;;;;;;5015589;28;20040;-75
2021/12/27 10:04:44;;;;;;;30.48;9.27;;;6.00;99.90;;;;;;5015748;28;20128;-75
2021/12/27 10:07:19;;;;;;;30.08;7.38;;;5.90;99.90;;;;;;4983062;28;20026;-76
2021/12/27 10:09:44;;;;;;;34.47;8.50;;;5.90;99.90;;;;;;4997148;28;20484;-76
2021/12/27 10:12:10;;;;;;;27.98;8.10;;;5.90;99.90;;;;;;4996961;28;20026;-76
2021/12/27 10:14:35;;;;;;;31.75;8.95;;;5.90;99.90;;;;;;4985032;28;20018;-76
2021/12/27 10:17:10;;;;;;;28.75;8.77;;;5.90;99.90;;;;;;4997173;28;20402;-77
2021/12/27 10:19:36;;;;;;;25.85;9.48;;;5.80;99.90;;;;;;4999968;28;20026;-76
2021/12/27 10:22:03;;;;;;;28.45;7.28;;;5.90;99.90;;;;;;4996953;28;20026;-76
2021/12/27 10:24:30;;;;;;;25.05;7.38;;;5.90;99.90;;;;;;4996746;28;20062;-75
2021/12/27 10:27:02;;;;;;;26.42;7.97;;;5.90;99.90;;;;;;4997176;28;20088;-76
2021/12/27 10:29:28;;;;;;;29.73;8.25;;;6.00;99.90;;;;;;5011110;28;20030;-76
2021/12/27 10:32:00;;;;;;;20.90;7.90;;;6.00;99.90;;;;;;5014934;28;20114;-76
2021/12/27 10:34:29;;;;;;;22.25;7.15;;;6.00;99.90;;;;;;5016476;28;20057;-76
2021/12/27 10:37:23;;;;;;;21.17;7.45;;;6.10;99.90;;;;;;4998546;28;20050;-76
2021/12/27 10:40:04;;;;;;;23.02;8.07;;;6.20;99.90;;;;;;5015998;28;20104;-76
2021/12/27 10:42:35;;;;;;;25.50;7.18;;;6.20;99.90;;;;;;5013617;28;20030;-76
2021/12/27 10:45:11;;;;;;;18.55;7.00;;;6.30;99.90;;;;;;4998392;28;20037;-76
2021/12/27 10:47:45;;;;;;;21.02;7.50;;;6.30;99.90;;;;;;4997869;28;20454;-76
2021/12/27 10:50:25;;;;;;;24.80;7.63;;;6.30;99.90;;;;;;5013903;28;20022;-76
2021/12/27 10:53:05;;;;;;;26.70;7.78;;;6.30;99.90;;;;;;5015565;28;20049;-76
2021/12/27 10:55:38;;;;;;;24.88;8.43;;;6.30;99.90;;;;;;5015355;28;20026;-76
2021/12/27 10:58:14;;;;;;;24.70;7.60;;;6.40;99.90;;;;;;5014493;28;20044;-76
2021/12/27 11:00:42;;;;;;;20.58;8.15;;;6.30;99.90;;;;;;4994976;28;20046;-76
2021/12/27 11:03:26;;;;;;;26.67;8.63;;;6.40;99.90;;;;;;4994648;28;20022;-76
2021/12/27 11:05:51;;;;;;;25.80;8.68;;;6.40;99.90;;;;;;4995602;28;20077;-76
2021/12/27 11:08:17;;;;;;;23.77;8.57;;;6.40;99.90;;;;;;5002021;28;20029;-76
2021/12/27 11:10:43;;;;;;;22.75;7.97;;;6.40;99.90;;;;;;5015699;28;20014;-76
2021/12/27 11:13:09;;;;;;;21.73;8.30;;;6.40;99.90;;;;;;5015705;28;20109;-76
2021/12/27 11:15:37;;;;;;;19.65;7.97;;;6.50;99.90;;;;;;4987645;28;20030;-76
2021/12/27 11:18:04;;;;;;;17.25;7.10;;;6.50;99.90;;;;;;4995808;28;20018;-76
2021/12/27 11:20:31;;;;;;;21.52;8.27;;;6.50;99.90;;;;;;4996260;28;20068;-76
2021/12/27 11:22:58;;;;;;;18.02;7.65;;;6.50;99.90;;;;;;5008527;28;20022;-76
2021/12/27 11:25:36;;;;;;;23.50;8.70;;;6.50;99.90;;;;;;5015289;28;20022;-76
2021/12/27 11:28:03;;;;;;;19.20;7.07;;;6.50;99.90;;;;;;5014066;28;20068;-76
2021/12/27 11:30:31;;;;;;;16.98;7.35;;;6.50;99.90;;;;;;5013938;28;20128;-76
2021/12/27 11:33:06;;;;;;;16.67;7.40;;;6.60;99.90;;;;;;5013437;28;20083;-76
2021/12/27 11:35:37;;;;;;;17.58;7.47;;;6.70;99.90;;;;;;5014815;28;20036;-76
2021/12/27 11:38:03;;;;;;;18.35;8.18;;;6.70;99.90;;;;;;5015511;28;20152;-76
2021/12/27 11:40:59;;;;;;;22.40;8.82;;;6.80;99.90;;;;;;5015058;28;20475;-76
2021/12/27 11:43:44;;;;;;;17.67;7.63;;;6.90;99.90;;;;;;4993892;28;20034;-76
2021/12/27 11:46:10;;;;;;;13.95;6.60;;;7.00;99.90;;;;;;5014510;28;20030;-76
2021/12/27 11:48:48;;;;;;;15.30;6.97;;;7.00;99.90;;;;;;5013936;28;20544;-76
2021/12/27 11:51:14;;;;;;;17.85;6.97;;;7.00;99.90;;;;;;4995255;28;20030;-76
2021/12/27 11:53:52;;;;;;;15.48;6.95;;;7.00;99.90;;;;;;4994846;28;20030;-76
2021/12/27 11:56:41;;;;;;;14.35;6.65;;;7.00;99.90;;;;;;5007103;28;20084;-76
2021/12/27 11:59:22;;;;;;;12.05;6.32;;;7.00;99.90;;;;;;4997909;28;20108;-76
2021/12/27 12:01:56;;;;;;;16.10;6.75;;;6.90;99.90;;;;;;4996477;28;20041;-76
2021/12/27 12:04:44;;;;;;;14.57;6.43;;;6.90;99.90;;;;;;5004465;28;20034;-76
2021/12/27 12:07:30;;;;;;;15.70;5.78;;;7.00;99.90;;;;;;4994877;28;20028;-76
2021/12/27 12:09:57;;;;;;;14.15;6.15;;;7.00;99.90;;;;;;4993427;28;20022;-76
2021/12/27 12:12:22;;;;;;;12.93;5.43;;;7.00;99.90;;;;;;4998835;28;20505;-76
2021/12/27 12:14:53;;;;;;;12.10;6.13;;;7.00;99.90;;;;;;5014046;28;20057;-75
2021/12/27 12:17:35;;;;;;;12.27;5.30;;;7.10;99.90;;;;;;5013918;28;20112;-74
2021/12/27 12:20:01;;;;;;;12.57;5.55;;;7.20;99.90;;;;;;4994631;28;20022;-76
2021/12/27 12:22:42;;;;;;;11.68;5.68;;;7.20;99.90;;;;;;4976828;28;20085;-75
2021/12/27 12:25:19;;;;;;;14.65;6.00;;;7.20;99.90;;;;;;4979054;28;20037;-76
2021/12/27 12:28:04;;;;;;;10.88;4.95;;;7.20;99.90;;;;;;5013998;28;20057;-76
2021/12/27 12:30:36;;;;;;;11.73;4.60;;;7.20;99.90;;;;;;4992401;28;20034;-76
2021/12/27 12:33:16;;;;;;;9.77;5.05;;;7.20;99.90;;;;;;5013934;28;20068;-76
2021/12/27 12:35:49;;;;;;;12.48;5.07;;;7.20;99.90;;;;;;5013270;28;20022;-76
2021/12/27 12:38:24;;;;;;;10.52;4.65;;;7.20;99.90;;;;;;5013014;28;20041;-76
2021/12/27 12:41:01;;;;;;;8.55;4.22;;;7.30;99.90;;;;;;5013662;28;20014;-76
2021/12/27 12:43:32;;;;;;;11.45;4.57;;;7.30;99.90;;;;;;4995070;28;20029;-76
2021/12/27 12:45:57;;;;;;;9.35;3.92;;;7.30;99.90;;;;;;5007770;28;20507;-75
2021/12/27 12:48:28;;;;;;;8.98;4.05;;;7.30;99.90;;;;;;4994191;28;20054;-76
2021/12/27 12:50:54;;;;;;;7.55;4.43;;;7.40;99.90;;;;;;5008405;28;20125;-75